PWSweather.com
Personal Weather Stations
Station Observations

PoschiavoCH

Lat: 46.31962499999999, Lon: 10.066551000000004

Elevation: 3517

Station Type: WH 1080

http://www.meteoposchiavo.com

High Low Average
Temperature 50.0°F10.0°C 30.0°F-1.1°C 38.8°F3.8°C
Dew Point 35.0°F1.7°C 20.2°F-6.6°C 26.8°F-2.9°C
Winds 5.8 mph 9.3 kmh Calm Calm 1.0 mph S1.6 kmh S
Wind Gusts 8.1 mph13.0 kmh -- 1.0 mph1.6 kmh
Humidity 82% 37% 63%
Pressure 26.62 in901.5 mb 26.49 in897.1 mb -
Precipitation 0.00 in0.0 mm - -
Hour Temp Dew Point Humidity Winds Wind Gusts Pressure Precip Precip Rate Daily Precip Total
12:00 AM 33.0°F0.6°C 22.1°F-5.5°C 64% Calm Calm -- 26.60 in900.8 mb - 0.00 in0.0 mm 0.00 in0.0 mm
12:10 AM 32.0°F0.0°C 21.9°F-5.6°C 66% Calm Calm -- 26.60 in900.8 mb - 0.00 in0.0 mm 0.00 in0.0 mm
12:15 AM 32.0°F0.0°C 21.9°F-5.6°C 66% Calm Calm -- 26.60 in900.8 mb - 0.00 in0.0 mm 0.00 in0.0 mm
12:20 AM 32.0°F0.0°C 21.6°F-5.8°C 65% Calm Calm -- 26.61 in901.1 mb - 0.00 in0.0 mm 0.00 in0.0 mm
12:25 AM 32.0°F0.0°C 21.9°F-5.6°C 66% Calm Calm -- 26.62 in901.5 mb - 0.00 in0.0 mm 0.00 in0.0 mm
12:30 AM 32.0°F0.0°C 21.9°F-5.6°C 66% Calm Calm -- 26.60 in900.8 mb - 0.00 in0.0 mm 0.00 in0.0 mm
12:35 AM 32.0°F0.0°C 21.6°F-5.8°C 65% Calm Calm -- 26.61 in901.1 mb - 0.00 in0.0 mm 0.00 in0.0 mm
12:40 AM 32.0°F0.0°C 21.2°F-6.0°C 64% Calm Calm -- 26.61 in901.1 mb - 0.00 in0.0 mm 0.00 in0.0 mm
12:45 AM 32.0°F0.0°C 21.2°F-6.0°C 64% Calm Calm -- 26.61 in901.1 mb - 0.00 in0.0 mm 0.00 in0.0 mm
12:50 AM 32.0°F0.0°C 21.2°F-6.0°C 64% Calm Calm -- 26.61 in901.1 mb - 0.00 in0.0 mm 0.00 in0.0 mm
12:55 AM 32.0°F0.0°C 20.8°F-6.2°C 63% Calm Calm -- 26.61 in901.1 mb - 0.00 in0.0 mm 0.00 in0.0 mm
01:00 AM 32.0°F0.0°C 21.6°F-5.8°C 65% Calm Calm -- 26.61 in901.1 mb - 0.00 in0.0 mm 0.00 in0.0 mm
01:10 AM 31.0°F-0.6°C 21.0°F-6.1°C 66% Calm Calm -- 26.62 in901.5 mb - 0.00 in0.0 mm 0.00 in0.0 mm
01:15 AM 31.0°F-0.6°C 21.0°F-6.1°C 66% Calm Calm -- 26.61 in901.1 mb - 0.00 in0.0 mm 0.00 in0.0 mm
01:20 AM 31.0°F-0.6°C 21.3°F-5.9°C 67% Calm Calm -- 26.62 in901.5 mb - 0.00 in0.0 mm 0.00 in0.0 mm
01:25 AM 32.0°F0.0°C 21.9°F-5.6°C 66% Calm Calm -- 26.62 in901.5 mb - 0.00 in0.0 mm 0.00 in0.0 mm
01:30 AM 32.0°F0.0°C 22.3°F-5.4°C 67% Calm Calm -- 26.62 in901.5 mb - 0.00 in0.0 mm 0.00 in0.0 mm
01:35 AM 32.0°F0.0°C 21.9°F-5.6°C 66% Calm Calm -- 26.62 in901.5 mb - 0.00 in0.0 mm 0.00 in0.0 mm
01:40 AM 32.6°F0.3°C 22.1°F-5.5°C 65% Calm Calm -- 26.62 in901.5 mb - 0.00 in0.0 mm 0.00 in0.0 mm
01:45 AM 33.0°F0.6°C 22.1°F-5.5°C 64% Calm Calm -- 26.62 in901.5 mb - 0.00 in0.0 mm 0.00 in0.0 mm
01:50 AM 32.0°F0.0°C 21.9°F-5.6°C 66% Calm Calm -- 26.62 in901.5 mb - 0.00 in0.0 mm 0.00 in0.0 mm
01:55 AM 32.0°F0.0°C 22.3°F-5.4°C 67% Calm Calm -- 26.62 in901.5 mb - 0.00 in0.0 mm 0.00 in0.0 mm
02:00 AM 32.0°F0.0°C 21.2°F-6.0°C 64% Calm Calm -- 26.62 in901.5 mb - 0.00 in0.0 mm 0.00 in0.0 mm
02:10 AM 32.0°F0.0°C 21.6°F-5.8°C 65% Calm Calm -- 26.62 in901.5 mb - 0.00 in0.0 mm 0.00 in0.0 mm
02:15 AM 32.0°F0.0°C 22.6°F-5.2°C 68% Calm Calm -- 26.62 in901.5 mb - 0.00 in0.0 mm 0.00 in0.0 mm
02:20 AM 32.0°F0.0°C 22.6°F-5.2°C 68% Calm Calm -- 26.62 in901.5 mb - 0.00 in0.0 mm 0.00 in0.0 mm
02:25 AM 32.0°F0.0°C 20.8°F-6.2°C 63% Calm Calm -- 26.62 in901.5 mb - 0.00 in0.0 mm 0.00 in0.0 mm
02:30 AM 32.8°F0.4°C 21.6°F-5.8°C 63% Calm Calm -- 26.61 in901.1 mb - 0.00 in0.0 mm 0.00 in0.0 mm
02:35 AM 33.0°F0.6°C 22.1°F-5.5°C 64% Calm Calm -- 26.61 in901.1 mb - 0.00 in0.0 mm 0.00 in0.0 mm
02:40 AM 32.0°F0.0°C 21.6°F-5.8°C 65% Calm Calm -- 26.60 in900.8 mb - 0.00 in0.0 mm 0.00 in0.0 mm
02:45 AM 33.0°F0.6°C 21.8°F-5.7°C 63% Calm Calm -- 26.60 in900.8 mb - 0.00 in0.0 mm 0.00 in0.0 mm
02:50 AM 33.0°F0.6°C 22.9°F-5.1°C 66% Calm Calm -- 26.60 in900.8 mb - 0.00 in0.0 mm 0.00 in0.0 mm
02:55 AM 32.0°F0.0°C 22.6°F-5.2°C 68% Calm Calm -- 26.61 in901.1 mb - 0.00 in0.0 mm 0.00 in0.0 mm
03:00 AM 32.0°F0.0°C 23.3°F-4.8°C 70% Calm Calm -- 26.60 in900.8 mb - 0.00 in0.0 mm 0.00 in0.0 mm
03:10 AM 32.0°F0.0°C 21.6°F-5.8°C 65% Calm Calm -- 26.60 in900.8 mb - 0.00 in0.0 mm 0.00 in0.0 mm
03:15 AM 31.0°F-0.6°C 20.6°F-6.3°C 65% Calm Calm -- 26.60 in900.8 mb - 0.00 in0.0 mm 0.00 in0.0 mm
03:20 AM 32.0°F0.0°C 21.2°F-6.0°C 64% Calm Calm -- 26.59 in900.4 mb - 0.00 in0.0 mm 0.00 in0.0 mm
03:25 AM 32.0°F0.0°C 21.6°F-5.8°C 65% Calm Calm -- 26.59 in900.4 mb - 0.00 in0.0 mm 0.00 in0.0 mm
03:30 AM 31.9°F-0.1°C 21.8°F-5.7°C 66% Calm Calm -- 26.59 in900.4 mb - 0.00 in0.0 mm 0.00 in0.0 mm
03:35 AM 31.0°F-0.6°C 21.3°F-5.9°C 67% Calm Calm -- 26.60 in900.8 mb - 0.00 in0.0 mm 0.00 in0.0 mm
03:40 AM 32.0°F0.0°C 21.2°F-6.0°C 64% Calm Calm 1.2 mph1.9 kmh 26.60 in900.8 mb - 0.00 in0.0 mm 0.00 in0.0 mm
03:45 AM 32.0°F0.0°C 20.8°F-6.2°C 63% Calm Calm -- 26.59 in900.4 mb - 0.00 in0.0 mm 0.00 in0.0 mm
03:50 AM 32.0°F0.0°C 21.6°F-5.8°C 65% Calm Calm -- 26.60 in900.8 mb - 0.00 in0.0 mm 0.00 in0.0 mm
03:55 AM 31.0°F-0.6°C 20.6°F-6.3°C 65% Calm Calm -- 26.59 in900.4 mb - 0.00 in0.0 mm 0.00 in0.0 mm
04:00 AM 31.0°F-0.6°C 21.7°F-5.7°C 68% Calm Calm -- 26.59 in900.4 mb - 0.00 in0.0 mm 0.00 in0.0 mm
04:10 AM 31.0°F-0.6°C 21.3°F-5.9°C 67% Calm Calm -- 26.59 in900.4 mb - 0.00 in0.0 mm 0.00 in0.0 mm
04:15 AM 31.0°F-0.6°C 21.7°F-5.7°C 68% Calm Calm -- 26.59 in900.4 mb - 0.00 in0.0 mm 0.00 in0.0 mm
04:20 AM 31.0°F-0.6°C 21.7°F-5.7°C 68% Calm Calm -- 26.59 in900.4 mb - 0.00 in0.0 mm 0.00 in0.0 mm
04:25 AM 31.0°F-0.6°C 21.3°F-5.9°C 67% Calm Calm -- 26.59 in900.4 mb - 0.00 in0.0 mm 0.00 in0.0 mm
04:30 AM 32.0°F0.0°C 21.6°F-5.8°C 65% Calm Calm -- 26.59 in900.4 mb - 0.00 in0.0 mm 0.00 in0.0 mm
04:35 AM 31.0°F-0.6°C 21.7°F-5.7°C 68% Calm Calm -- 26.59 in900.4 mb - 0.00 in0.0 mm 0.00 in0.0 mm
04:40 AM 31.0°F-0.6°C 21.3°F-5.9°C 67% Calm Calm -- 26.59 in900.4 mb - 0.00 in0.0 mm 0.00 in0.0 mm
04:45 AM 31.0°F-0.6°C 21.0°F-6.1°C 66% Calm Calm -- 26.59 in900.4 mb - 0.00 in0.0 mm 0.00 in0.0 mm
04:50 AM 31.0°F-0.6°C 21.3°F-5.9°C 67% Calm Calm -- 26.59 in900.4 mb - 0.00 in0.0 mm 0.00 in0.0 mm
04:55 AM 31.0°F-0.6°C 21.3°F-5.9°C 67% Calm Calm -- 26.59 in900.4 mb - 0.00 in0.0 mm 0.00 in0.0 mm
05:00 AM 31.0°F-0.6°C 20.2°F-6.6°C 64% Calm Calm -- 26.59 in900.4 mb - 0.00 in0.0 mm 0.00 in0.0 mm
05:10 AM 31.0°F-0.6°C 21.3°F-5.9°C 67% Calm Calm -- 26.59 in900.4 mb - 0.00 in0.0 mm 0.00 in0.0 mm
05:15 AM 31.0°F-0.6°C 21.3°F-5.9°C 67% Calm Calm -- 26.59 in900.4 mb - 0.00 in0.0 mm 0.00 in0.0 mm
05:20 AM 31.0°F-0.6°C 20.6°F-6.3°C 65% Calm Calm -- 26.59 in900.4 mb - 0.00 in0.0 mm 0.00 in0.0 mm
05:25 AM 31.0°F-0.6°C 21.3°F-5.9°C 67% Calm Calm -- 26.59 in900.4 mb - 0.00 in0.0 mm 0.00 in0.0 mm
05:30 AM 32.0°F0.0°C 22.3°F-5.4°C 67% Calm Calm -- 26.59 in900.4 mb - 0.00 in0.0 mm 0.00 in0.0 mm
05:35 AM 32.0°F0.0°C 21.6°F-5.8°C 65% Calm Calm -- 26.59 in900.4 mb - 0.00 in0.0 mm 0.00 in0.0 mm
05:40 AM 31.0°F-0.6°C 21.3°F-5.9°C 67% Calm Calm -- 26.59 in900.4 mb - 0.00 in0.0 mm 0.00 in0.0 mm
05:45 AM 31.0°F-0.6°C 21.0°F-6.1°C 66% Calm Calm -- 26.60 in900.8 mb - 0.00 in0.0 mm 0.00 in0.0 mm
05:50 AM 31.0°F-0.6°C 21.0°F-6.1°C 66% Calm Calm -- 26.60 in900.8 mb - 0.00 in0.0 mm 0.00 in0.0 mm
05:55 AM 31.0°F-0.6°C 21.7°F-5.7°C 68% Calm Calm -- 26.60 in900.8 mb - 0.00 in0.0 mm 0.00 in0.0 mm
06:00 AM 31.0°F-0.6°C 21.3°F-5.9°C 67% Calm Calm -- 26.60 in900.8 mb - 0.00 in0.0 mm 0.00 in0.0 mm
06:10 AM 31.0°F-0.6°C 20.6°F-6.3°C 65% Calm Calm -- 26.60 in900.8 mb - 0.00 in0.0 mm 0.00 in0.0 mm
06:15 AM 31.0°F-0.6°C 21.0°F-6.1°C 66% Calm Calm -- 26.60 in900.8 mb - 0.00 in0.0 mm 0.00 in0.0 mm
06:20 AM 31.0°F-0.6°C 21.7°F-5.7°C 68% Calm Calm -- 26.60 in900.8 mb - 0.00 in0.0 mm 0.00 in0.0 mm
06:25 AM 31.0°F-0.6°C 21.7°F-5.7°C 68% Calm Calm -- 26.60 in900.8 mb - 0.00 in0.0 mm 0.00 in0.0 mm
06:30 AM 31.0°F-0.6°C 21.3°F-5.9°C 67% Calm Calm -- 26.61 in901.1 mb - 0.00 in0.0 mm 0.00 in0.0 mm
06:35 AM 31.0°F-0.6°C 21.3°F-5.9°C 67% Calm Calm -- 26.60 in900.8 mb - 0.00 in0.0 mm 0.00 in0.0 mm
06:40 AM 31.0°F-0.6°C 21.0°F-6.1°C 66% Calm Calm -- 26.61 in901.1 mb - 0.00 in0.0 mm 0.00 in0.0 mm
06:45 AM 30.0°F-1.1°C 20.4°F-6.4°C 67% Calm Calm -- 26.61 in901.1 mb - 0.00 in0.0 mm 0.00 in0.0 mm
06:50 AM 30.0°F-1.1°C 20.7°F-6.3°C 68% Calm Calm -- 26.61 in901.1 mb - 0.00 in0.0 mm 0.00 in0.0 mm
06:55 AM 30.0°F-1.1°C 21.1°F-6.1°C 69% Calm Calm -- 26.61 in901.1 mb - 0.00 in0.0 mm 0.00 in0.0 mm
07:00 AM 30.0°F-1.1°C 20.4°F-6.4°C 67% Calm Calm -- 26.60 in900.8 mb - 0.00 in0.0 mm 0.00 in0.0 mm
07:10 AM 30.0°F-1.1°C 21.1°F-6.1°C 69% Calm Calm -- 26.60 in900.8 mb - 0.00 in0.0 mm 0.00 in0.0 mm
07:15 AM 30.0°F-1.1°C 21.1°F-6.1°C 69% Calm Calm -- 26.60 in900.8 mb - 0.00 in0.0 mm 0.00 in0.0 mm
07:20 AM 31.0°F-0.6°C 21.7°F-5.7°C 68% Calm Calm -- 26.60 in900.8 mb - 0.00 in0.0 mm 0.00 in0.0 mm
07:25 AM 31.0°F-0.6°C 22.0°F-5.6°C 69% Calm Calm -- 26.60 in900.8 mb - 0.00 in0.0 mm 0.00 in0.0 mm
07:30 AM 31.0°F-0.6°C 21.0°F-6.1°C 66% Calm Calm -- 26.61 in901.1 mb - 0.00 in0.0 mm 0.00 in0.0 mm
07:35 AM 31.0°F-0.6°C 21.3°F-5.9°C 67% Calm Calm -- 26.60 in900.8 mb - 0.00 in0.0 mm 0.00 in0.0 mm
07:40 AM 31.0°F-0.6°C 21.3°F-5.9°C 67% Calm Calm -- 26.60 in900.8 mb - 0.00 in0.0 mm 0.00 in0.0 mm
07:45 AM 31.0°F-0.6°C 21.3°F-5.9°C 67% Calm Calm -- 26.60 in900.8 mb - 0.00 in0.0 mm 0.00 in0.0 mm
07:50 AM 31.0°F-0.6°C 22.4°F-5.3°C 70% Calm Calm -- 26.61 in901.1 mb - 0.00 in0.0 mm 0.00 in0.0 mm
07:55 AM 30.0°F-1.1°C 21.7°F-5.7°C 71% Calm Calm -- 26.60 in900.8 mb - 0.00 in0.0 mm 0.00 in0.0 mm
08:00 AM 30.0°F-1.1°C 21.4°F-5.9°C 70% Calm Calm -- 26.60 in900.8 mb - 0.00 in0.0 mm 0.00 in0.0 mm
08:10 AM 31.0°F-0.6°C 22.0°F-5.6°C 69% Calm Calm -- 26.60 in900.8 mb - 0.00 in0.0 mm 0.00 in0.0 mm
08:15 AM 31.0°F-0.6°C 21.7°F-5.7°C 68% Calm Calm -- 26.60 in900.8 mb - 0.00 in0.0 mm 0.00 in0.0 mm
08:20 AM 32.0°F0.0°C 23.0°F-5.0°C 69% Calm Calm -- 26.60 in900.8 mb - 0.00 in0.0 mm 0.00 in0.0 mm
08:25 AM 32.0°F0.0°C 22.6°F-5.2°C 68% Calm Calm -- 26.60 in900.8 mb - 0.00 in0.0 mm 0.00 in0.0 mm
08:30 AM 32.0°F0.0°C 22.3°F-5.4°C 67% Calm Calm -- 26.60 in900.8 mb - 0.00 in0.0 mm 0.00 in0.0 mm
08:35 AM 32.0°F0.0°C 21.9°F-5.6°C 66% Calm Calm -- 26.59 in900.4 mb - 0.00 in0.0 mm 0.00 in0.0 mm
08:40 AM 33.0°F0.6°C 22.9°F-5.1°C 66% Calm Calm -- 26.60 in900.8 mb - 0.00 in0.0 mm 0.00 in0.0 mm
08:45 AM 32.0°F0.0°C 21.6°F-5.8°C 65% Calm Calm -- 26.59 in900.4 mb - 0.00 in0.0 mm 0.00 in0.0 mm
08:50 AM 33.0°F0.6°C 22.9°F-5.1°C 66% Calm Calm -- 26.59 in900.4 mb - 0.00 in0.0 mm 0.00 in0.0 mm
08:55 AM 35.0°F1.7°C 24.4°F-4.2°C 65% Calm Calm -- 26.59 in900.4 mb - 0.00 in0.0 mm 0.00 in0.0 mm
09:00 AM 34.0°F1.1°C 23.5°F-4.7°C 65% Calm Calm -- 26.59 in900.4 mb - 0.00 in0.0 mm 0.00 in0.0 mm
09:10 AM 35.9°F2.2°C 23.7°F-4.6°C 61% Calm Calm -- 26.58 in900.1 mb - 0.00 in0.0 mm 0.00 in0.0 mm
09:15 AM 36.0°F2.2°C 23.8°F-4.6°C 61% Calm Calm -- 26.58 in900.1 mb - 0.00 in0.0 mm 0.00 in0.0 mm
09:20 AM 36.0°F2.2°C 23.8°F-4.6°C 61% Calm Calm -- 26.59 in900.4 mb - 0.00 in0.0 mm 0.00 in0.0 mm
09:25 AM 37.0°F2.8°C 23.6°F-4.7°C 58% Calm Calm -- 26.58 in900.1 mb - 0.00 in0.0 mm 0.00 in0.0 mm
09:30 AM 38.0°F3.3°C 23.7°F-4.6°C 56% Calm Calm -- 26.58 in900.1 mb - 0.00 in0.0 mm 0.00 in0.0 mm
09:35 AM 39.0°F3.9°C 23.3°F-4.8°C 53% Calm Calm -- 26.58 in900.1 mb - 0.00 in0.0 mm 0.00 in0.0 mm
09:40 AM 39.0°F3.9°C 22.4°F-5.3°C 51% Calm Calm -- 26.57 in899.8 mb - 0.00 in0.0 mm 0.00 in0.0 mm
09:45 AM 40.0°F4.4°C 22.4°F-5.3°C 49% Calm Calm -- 26.58 in900.1 mb - 0.00 in0.0 mm 0.00 in0.0 mm
09:50 AM 41.0°F5.0°C 21.8°F-5.7°C 46% Calm Calm -- 26.58 in900.1 mb - 0.00 in0.0 mm 0.00 in0.0 mm
09:55 AM 41.0°F5.0°C 22.3°F-5.4°C 47% Calm Calm -- 26.57 in899.8 mb - 0.00 in0.0 mm 0.00 in0.0 mm
10:00 AM 41.5°F5.3°C 23.7°F-4.6°C 49% Calm Calm -- 26.57 in899.8 mb - 0.00 in0.0 mm 0.00 in0.0 mm
10:10 AM 42.0°F5.6°C 24.2°F-4.3°C 49% Calm Calm -- 26.57 in899.8 mb - 0.00 in0.0 mm 0.00 in0.0 mm
10:15 AM 43.0°F6.1°C 22.0°F-5.6°C 43% Calm Calm -- 26.56 in899.4 mb - 0.00 in0.0 mm 0.00 in0.0 mm
10:20 AM 43.0°F6.1°C 22.5°F-5.3°C 44% Calm Calm 1.2 mph1.9 kmh 26.57 in899.8 mb - 0.00 in0.0 mm 0.00 in0.0 mm
10:25 AM 43.0°F6.1°C 23.1°F-4.9°C 45% 1.2 mph NW1.9 kmh NW 1.2 mph1.9 kmh 26.56 in899.4 mb - 0.00 in0.0 mm 0.00 in0.0 mm
10:30 AM 45.0°F7.2°C 23.8°F-4.6°C 43% Calm Calm -- 26.56 in899.4 mb - 0.00 in0.0 mm 0.00 in0.0 mm
10:35 AM 44.0°F6.7°C 24.0°F-4.4°C 45% Calm Calm 1.2 mph1.9 kmh 26.56 in899.4 mb - 0.00 in0.0 mm 0.00 in0.0 mm
10:40 AM 44.0°F6.7°C 22.4°F-5.3°C 42% 2.3 mph W3.7 kmh W 3.5 mph5.6 kmh 26.56 in899.4 mb - 0.00 in0.0 mm 0.00 in0.0 mm
10:45 AM 44.0°F6.7°C 22.4°F-5.3°C 42% 1.2 mph WNW1.9 kmh WNW 3.5 mph5.6 kmh 26.56 in899.4 mb - 0.00 in0.0 mm 0.00 in0.0 mm
10:50 AM 43.8°F6.6°C 22.2°F-5.4°C 42% 1.2 mph WNW1.9 kmh WNW 2.3 mph3.7 kmh 26.56 in899.4 mb - 0.00 in0.0 mm 0.00 in0.0 mm
10:55 AM 43.0°F6.1°C 22.5°F-5.3°C 44% 2.3 mph WNW3.7 kmh WNW 2.3 mph3.7 kmh 26.56 in899.4 mb - 0.00 in0.0 mm 0.00 in0.0 mm
11:00 AM 44.0°F6.7°C 22.4°F-5.3°C 42% 1.2 mph WNW1.9 kmh WNW 1.2 mph1.9 kmh 26.56 in899.4 mb - 0.00 in0.0 mm 0.00 in0.0 mm
11:10 AM 44.0°F6.7°C 24.5°F-4.2°C 46% 1.2 mph W1.9 kmh W 2.3 mph3.7 kmh 26.56 in899.4 mb - 0.00 in0.0 mm 0.00 in0.0 mm
11:15 AM 45.0°F7.2°C 21.5°F-5.8°C 39% Calm Calm -- 26.56 in899.4 mb - 0.00 in0.0 mm 0.00 in0.0 mm
11:20 AM 45.0°F7.2°C 23.3°F-4.8°C 42% Calm Calm 1.2 mph1.9 kmh 26.55 in899.1 mb - 0.00 in0.0 mm 0.00 in0.0 mm
11:25 AM 46.0°F7.8°C 25.3°F-3.7°C 44% 2.3 mph WNW3.7 kmh WNW 2.3 mph3.7 kmh 26.55 in899.1 mb - 0.00 in0.0 mm 0.00 in0.0 mm
11:30 AM 46.8°F8.2°C 23.1°F-4.9°C 39% 2.3 mph WNW3.7 kmh WNW 3.5 mph5.6 kmh 26.55 in899.1 mb - 0.00 in0.0 mm 0.00 in0.0 mm
11:35 AM 47.0°F8.3°C 23.3°F-4.8°C 39% 2.3 mph WNW3.7 kmh WNW 3.5 mph5.6 kmh 26.55 in899.1 mb - 0.00 in0.0 mm 0.00 in0.0 mm
11:40 AM 46.0°F7.8°C 23.0°F-5.0°C 40% 2.3 mph NW3.7 kmh NW 3.5 mph5.6 kmh 26.54 in898.7 mb - 0.00 in0.0 mm 0.00 in0.0 mm
11:45 AM 45.0°F7.2°C 20.9°F-6.2°C 38% 2.3 mph W3.7 kmh W 2.3 mph3.7 kmh 26.55 in899.1 mb - 0.00 in0.0 mm 0.00 in0.0 mm
11:50 AM 46.0°F7.8°C 21.1°F-6.1°C 37% 1.2 mph W1.9 kmh W 2.3 mph3.7 kmh 26.54 in898.7 mb - 0.00 in0.0 mm 0.00 in0.0 mm
11:55 AM 46.0°F7.8°C 21.8°F-5.7°C 38% 2.3 mph W3.7 kmh W 3.5 mph5.6 kmh 26.54 in898.7 mb - 0.00 in0.0 mm 0.00 in0.0 mm
12:00 PM 46.0°F7.8°C 21.1°F-6.1°C 37% 1.2 mph NW1.9 kmh NW 1.2 mph1.9 kmh 26.54 in898.7 mb - 0.00 in0.0 mm 0.00 in0.0 mm
12:10 PM 46.0°F7.8°C 22.4°F-5.3°C 39% 2.3 mph N3.7 kmh N 2.3 mph3.7 kmh 26.53 in898.4 mb - 0.00 in0.0 mm 0.00 in0.0 mm
12:15 PM 45.1°F7.3°C 23.3°F-4.8°C 42% 3.5 mph WNW5.6 kmh WNW 6.9 mph11.1 kmh 26.53 in898.4 mb - 0.00 in0.0 mm 0.00 in0.0 mm
12:20 PM 45.0°F7.2°C 23.3°F-4.8°C 42% 2.3 mph WNW3.7 kmh WNW 6.9 mph11.1 kmh 26.53 in898.4 mb - 0.00 in0.0 mm 0.00 in0.0 mm
12:25 PM 45.0°F7.2°C 23.8°F-4.6°C 43% Calm Calm 1.2 mph1.9 kmh 26.53 in898.4 mb - 0.00 in0.0 mm 0.00 in0.0 mm
12:30 PM 45.0°F7.2°C 23.8°F-4.6°C 43% 1.2 mph W1.9 kmh W 2.3 mph3.7 kmh 26.53 in898.4 mb - 0.00 in0.0 mm 0.00 in0.0 mm
12:35 PM 46.0°F7.8°C 25.3°F-3.7°C 44% 2.3 mph WNW3.7 kmh WNW 2.3 mph3.7 kmh 26.52 in898.1 mb - 0.00 in0.0 mm 0.00 in0.0 mm
12:40 PM 47.0°F8.3°C 26.2°F-3.2°C 44% 2.3 mph WNW3.7 kmh WNW 3.5 mph5.6 kmh 26.52 in898.1 mb - 0.00 in0.0 mm 0.00 in0.0 mm
12:45 PM 46.0°F7.8°C 24.7°F-4.1°C 43% 2.3 mph N3.7 kmh N 3.5 mph5.6 kmh 26.52 in898.1 mb - 0.00 in0.0 mm 0.00 in0.0 mm
12:50 PM 46.0°F7.8°C 25.3°F-3.7°C 44% 3.5 mph NW5.6 kmh NW 6.9 mph11.1 kmh 26.52 in898.1 mb - 0.00 in0.0 mm 0.00 in0.0 mm
12:55 PM 46.0°F7.8°C 25.3°F-3.7°C 44% 1.2 mph NNE1.9 kmh NNE 2.3 mph3.7 kmh 26.53 in898.4 mb - 0.00 in0.0 mm 0.00 in0.0 mm
01:00 PM 47.0°F8.3°C 25.6°F-3.6°C 43% 2.3 mph NNW3.7 kmh NNW 3.5 mph5.6 kmh 26.52 in898.1 mb - 0.00 in0.0 mm 0.00 in0.0 mm
01:10 PM 48.0°F8.9°C 27.1°F-2.7°C 44% 3.5 mph NW5.6 kmh NW 6.9 mph11.1 kmh 26.53 in898.4 mb - 0.00 in0.0 mm 0.00 in0.0 mm
01:15 PM 48.0°F8.9°C 28.7°F-1.8°C 47% 3.5 mph NW5.6 kmh NW 3.5 mph5.6 kmh 26.51 in897.7 mb - 0.00 in0.0 mm 0.00 in0.0 mm
01:20 PM 49.0°F9.4°C 28.6°F-1.9°C 45% 3.5 mph NW5.6 kmh NW 5.8 mph9.3 kmh 26.51 in897.7 mb - 0.00 in0.0 mm 0.00 in0.0 mm
01:25 PM 48.0°F8.9°C 28.2°F-2.1°C 46% 3.5 mph WSW5.6 kmh WSW 3.5 mph5.6 kmh 26.51 in897.7 mb - 0.00 in0.0 mm 0.00 in0.0 mm
01:30 PM 47.0°F8.3°C 26.7°F-2.9°C 45% 3.5 mph NW5.6 kmh NW 3.5 mph5.6 kmh 26.51 in897.7 mb - 0.00 in0.0 mm 0.00 in0.0 mm
01:35 PM 49.0°F9.4°C 30.7°F-0.7°C 49% 3.5 mph W5.6 kmh W 3.5 mph5.6 kmh 26.51 in897.7 mb - 0.00 in0.0 mm 0.00 in0.0 mm
01:40 PM 48.0°F8.9°C 29.2°F-1.6°C 48% 2.3 mph NW3.7 kmh NW 3.5 mph5.6 kmh 26.50 in897.4 mb - 0.00 in0.0 mm 0.00 in0.0 mm
01:45 PM 48.0°F8.9°C 29.7°F-1.3°C 49% 3.5 mph NNW5.6 kmh NNW 3.5 mph5.6 kmh 26.51 in897.7 mb - 0.00 in0.0 mm 0.00 in0.0 mm
01:50 PM 48.0°F8.9°C 29.2°F-1.6°C 48% 3.5 mph NNW5.6 kmh NNW 3.5 mph5.6 kmh 26.50 in897.4 mb - 0.00 in0.0 mm 0.00 in0.0 mm
01:55 PM 48.0°F8.9°C 29.2°F-1.6°C 48% 3.5 mph NW5.6 kmh NW 3.5 mph5.6 kmh 26.50 in897.4 mb - 0.00 in0.0 mm 0.00 in0.0 mm
02:00 PM 48.0°F8.9°C 28.2°F-2.1°C 46% 3.5 mph WNW5.6 kmh WNW 3.5 mph5.6 kmh 26.50 in897.4 mb - 0.00 in0.0 mm 0.00 in0.0 mm
02:10 PM 50.0°F10.0°C 31.1°F-0.5°C 48% 3.5 mph NW5.6 kmh NW 3.5 mph5.6 kmh 26.49 in897.1 mb - 0.00 in0.0 mm 0.00 in0.0 mm
02:15 PM 49.0°F9.4°C 30.7°F-0.7°C 49% 2.3 mph N3.7 kmh N 3.5 mph5.6 kmh 26.49 in897.1 mb - 0.00 in0.0 mm 0.00 in0.0 mm
02:20 PM 49.0°F9.4°C 29.6°F-1.3°C 47% 3.5 mph W5.6 kmh W 3.5 mph5.6 kmh 26.49 in897.1 mb - 0.00 in0.0 mm 0.00 in0.0 mm
02:25 PM 48.0°F8.9°C 29.7°F-1.3°C 49% 3.5 mph N5.6 kmh N 6.9 mph11.1 kmh 26.49 in897.1 mb - 0.00 in0.0 mm 0.00 in0.0 mm
02:30 PM 48.0°F8.9°C 29.7°F-1.3°C 49% 2.3 mph NW3.7 kmh NW 3.5 mph5.6 kmh 26.49 in897.1 mb - 0.00 in0.0 mm 0.00 in0.0 mm
02:35 PM 47.5°F8.6°C 29.8°F-1.2°C 50% 2.3 mph NNW3.7 kmh NNW 3.5 mph5.6 kmh 26.49 in897.1 mb - 0.00 in0.0 mm 0.00 in0.0 mm
02:40 PM 47.0°F8.3°C 30.3°F-0.9°C 52% 3.5 mph N5.6 kmh N 3.5 mph5.6 kmh 26.49 in897.1 mb - 0.00 in0.0 mm 0.00 in0.0 mm
02:45 PM 46.0°F7.8°C 30.3°F-0.9°C 54% 2.3 mph NW3.7 kmh NW 3.5 mph5.6 kmh 26.49 in897.1 mb - 0.00 in0.0 mm 0.00 in0.0 mm
02:50 PM 46.0°F7.8°C 29.8°F-1.2°C 53% 3.5 mph NW5.6 kmh NW 3.5 mph5.6 kmh 26.49 in897.1 mb - 0.00 in0.0 mm 0.00 in0.0 mm
02:55 PM 46.0°F7.8°C 30.7°F-0.7°C 55% 3.5 mph N5.6 kmh N 6.9 mph11.1 kmh 26.49 in897.1 mb - 0.00 in0.0 mm 0.00 in0.0 mm
03:00 PM 46.0°F7.8°C 30.7°F-0.7°C 55% 3.5 mph N5.6 kmh N 3.5 mph5.6 kmh 26.49 in897.1 mb - 0.00 in0.0 mm 0.00 in0.0 mm
03:10 PM 46.0°F7.8°C 31.2°F-0.4°C 56% 3.5 mph NW5.6 kmh NW 3.5 mph5.6 kmh 26.50 in897.4 mb - 0.00 in0.0 mm 0.00 in0.0 mm
03:15 PM 46.0°F7.8°C 30.7°F-0.7°C 55% 2.3 mph N3.7 kmh N 3.5 mph5.6 kmh 26.50 in897.4 mb - 0.00 in0.0 mm 0.00 in0.0 mm
03:20 PM 46.0°F7.8°C 31.2°F-0.4°C 56% 2.3 mph NNW3.7 kmh NNW 3.5 mph5.6 kmh 26.50 in897.4 mb - 0.00 in0.0 mm 0.00 in0.0 mm
03:25 PM 46.0°F7.8°C 31.6°F-0.2°C 57% 3.5 mph NNW5.6 kmh NNW 3.5 mph5.6 kmh 26.50 in897.4 mb - 0.00 in0.0 mm 0.00 in0.0 mm
03:30 PM 46.0°F7.8°C 31.6°F-0.2°C 57% 3.5 mph NW5.6 kmh NW 3.5 mph5.6 kmh 26.50 in897.4 mb - 0.00 in0.0 mm 0.00 in0.0 mm
03:35 PM 46.0°F7.8°C 31.6°F-0.2°C 57% 1.2 mph NNW1.9 kmh NNW 2.3 mph3.7 kmh 26.51 in897.7 mb - 0.00 in0.0 mm 0.00 in0.0 mm
03:40 PM 46.0°F7.8°C 31.6°F-0.2°C 57% 2.3 mph NW3.7 kmh NW 3.5 mph5.6 kmh 26.51 in897.7 mb - 0.00 in0.0 mm 0.00 in0.0 mm
03:45 PM 46.0°F7.8°C 32.5°F0.3°C 59% 3.5 mph W5.6 kmh W 3.5 mph5.6 kmh 26.50 in897.4 mb - 0.00 in0.0 mm 0.00 in0.0 mm
03:50 PM 46.0°F7.8°C 32.5°F0.3°C 59% 2.3 mph NW3.7 kmh NW 3.5 mph5.6 kmh 26.50 in897.4 mb - 0.00 in0.0 mm 0.00 in0.0 mm
03:55 PM 45.0°F7.2°C 32.3°F0.2°C 61% 2.3 mph N3.7 kmh N 2.3 mph3.7 kmh 26.51 in897.7 mb - 0.00 in0.0 mm 0.00 in0.0 mm
04:00 PM 45.0°F7.2°C 31.9°F-0.1°C 60% 1.2 mph NW1.9 kmh NW 1.2 mph1.9 kmh 26.51 in897.7 mb - 0.00 in0.0 mm 0.00 in0.0 mm
04:10 PM 45.0°F7.2°C 31.9°F-0.1°C 60% 1.2 mph N1.9 kmh N 5.8 mph9.3 kmh 26.51 in897.7 mb - 0.00 in0.0 mm 0.00 in0.0 mm
04:15 PM 45.0°F7.2°C 32.8°F0.4°C 62% 3.5 mph NW5.6 kmh NW 5.8 mph9.3 kmh 26.51 in897.7 mb - 0.00 in0.0 mm 0.00 in0.0 mm
04:20 PM 45.0°F7.2°C 32.8°F0.4°C 62% 2.3 mph NNW3.7 kmh NNW 3.5 mph5.6 kmh 26.51 in897.7 mb - 0.00 in0.0 mm 0.00 in0.0 mm
04:25 PM 44.0°F6.7°C 32.6°F0.3°C 64% 2.3 mph W3.7 kmh W 3.5 mph5.6 kmh 26.51 in897.7 mb - 0.00 in0.0 mm 0.00 in0.0 mm
04:30 PM 44.0°F6.7°C 32.2°F0.1°C 63% 2.3 mph NNE3.7 kmh NNE 2.3 mph3.7 kmh 26.51 in897.7 mb - 0.00 in0.0 mm 0.00 in0.0 mm
04:35 PM 44.0°F6.7°C 32.6°F0.3°C 64% 2.3 mph NNW3.7 kmh NNW 3.5 mph5.6 kmh 26.51 in897.7 mb - 0.00 in0.0 mm 0.00 in0.0 mm
04:40 PM 44.0°F6.7°C 33.0°F0.6°C 65% 5.8 mph NW9.3 kmh NW 8.1 mph13.0 kmh 26.51 in897.7 mb - 0.00 in0.0 mm 0.00 in0.0 mm
04:45 PM 44.0°F6.7°C 33.4°F0.8°C 66% 4.6 mph W7.4 kmh W 5.8 mph9.3 kmh 26.50 in897.4 mb - 0.00 in0.0 mm 0.00 in0.0 mm
04:50 PM 44.0°F6.7°C 33.4°F0.8°C 66% 2.3 mph W3.7 kmh W 5.8 mph9.3 kmh 26.51 in897.7 mb - 0.00 in0.0 mm 0.00 in0.0 mm
04:55 PM 44.0°F6.7°C 33.4°F0.8°C 66% 1.2 mph NNW1.9 kmh NNW 3.5 mph5.6 kmh 26.51 in897.7 mb - 0.00 in0.0 mm 0.00 in0.0 mm
05:00 PM 44.0°F6.7°C 33.4°F0.8°C 66% 3.5 mph W5.6 kmh W 3.5 mph5.6 kmh 26.51 in897.7 mb - 0.00 in0.0 mm 0.00 in0.0 mm
05:10 PM 43.0°F6.1°C 32.4°F0.2°C 66% 1.2 mph N1.9 kmh N 1.2 mph1.9 kmh 26.52 in898.1 mb - 0.00 in0.0 mm 0.00 in0.0 mm
05:15 PM 43.0°F6.1°C 32.4°F0.2°C 66% 2.3 mph NW3.7 kmh NW 2.3 mph3.7 kmh 26.52 in898.1 mb - 0.00 in0.0 mm 0.00 in0.0 mm
05:20 PM 43.0°F6.1°C 32.4°F0.2°C 66% Calm Calm -- 26.51 in897.7 mb - 0.00 in0.0 mm 0.00 in0.0 mm
05:25 PM 43.0°F6.1°C 32.8°F0.4°C 67% 2.3 mph NW3.7 kmh NW 3.5 mph5.6 kmh 26.52 in898.1 mb - 0.00 in0.0 mm 0.00 in0.0 mm
05:30 PM 43.0°F6.1°C 32.8°F0.4°C 67% 1.2 mph N1.9 kmh N 1.2 mph1.9 kmh 26.52 in898.1 mb - 0.00 in0.0 mm 0.00 in0.0 mm
05:35 PM 43.0°F6.1°C 33.2°F0.7°C 68% 2.3 mph NW3.7 kmh NW 3.5 mph5.6 kmh 26.52 in898.1 mb - 0.00 in0.0 mm 0.00 in0.0 mm
05:40 PM 43.0°F6.1°C 33.2°F0.7°C 68% 2.3 mph NW3.7 kmh NW 3.5 mph5.6 kmh 26.52 in898.1 mb - 0.00 in0.0 mm 0.00 in0.0 mm
05:45 PM 43.0°F6.1°C 33.2°F0.7°C 68% 1.2 mph N1.9 kmh N 1.2 mph1.9 kmh 26.53 in898.4 mb - 0.00 in0.0 mm 0.00 in0.0 mm
05:50 PM 43.0°F6.1°C 33.2°F0.7°C 68% 2.3 mph NE3.7 kmh NE 2.3 mph3.7 kmh 26.52 in898.1 mb - 0.00 in0.0 mm 0.00 in0.0 mm
05:55 PM 42.0°F5.6°C 32.6°F0.3°C 69% Calm Calm -- 26.52 in898.1 mb - 0.00 in0.0 mm 0.00 in0.0 mm
06:00 PM 42.0°F5.6°C 32.9°F0.5°C 70% 1.2 mph NW1.9 kmh NW 1.2 mph1.9 kmh 26.52 in898.1 mb - 0.00 in0.0 mm 0.00 in0.0 mm
06:10 PM 42.0°F5.6°C 32.6°F0.3°C 69% Calm Calm 1.2 mph1.9 kmh 26.52 in898.1 mb - 0.00 in0.0 mm 0.00 in0.0 mm
06:15 PM 42.0°F5.6°C 32.9°F0.5°C 70% 1.2 mph NW1.9 kmh NW 1.2 mph1.9 kmh 26.53 in898.4 mb - 0.00 in0.0 mm 0.00 in0.0 mm
06:20 PM 42.0°F5.6°C 32.9°F0.5°C 70% Calm Calm 1.2 mph1.9 kmh 26.54 in898.7 mb - 0.00 in0.0 mm 0.00 in0.0 mm
06:25 PM 42.0°F5.6°C 32.9°F0.5°C 70% Calm Calm -- 26.54 in898.7 mb - 0.00 in0.0 mm 0.00 in0.0 mm
06:30 PM 42.0°F5.6°C 33.3°F0.7°C 71% Calm Calm -- 26.53 in898.4 mb - 0.00 in0.0 mm 0.00 in0.0 mm
06:35 PM 41.0°F5.0°C 32.7°F0.4°C 72% Calm Calm -- 26.54 in898.7 mb - 0.00 in0.0 mm 0.00 in0.0 mm
06:40 PM 42.0°F5.6°C 33.3°F0.7°C 71% Calm Calm -- 26.54 in898.7 mb - 0.00 in0.0 mm 0.00 in0.0 mm
06:45 PM 42.0°F5.6°C 33.3°F0.7°C 71% Calm Calm 1.2 mph1.9 kmh 26.54 in898.7 mb - 0.00 in0.0 mm 0.00 in0.0 mm
06:50 PM 42.0°F5.6°C 33.3°F0.7°C 71% Calm Calm -- 26.54 in898.7 mb - 0.00 in0.0 mm 0.00 in0.0 mm
06:55 PM 42.0°F5.6°C 32.9°F0.5°C 70% Calm Calm -- 26.54 in898.7 mb - 0.00 in0.0 mm 0.00 in0.0 mm
07:00 PM 42.0°F5.6°C 33.3°F0.7°C 71% Calm Calm -- 26.54 in898.7 mb - 0.00 in0.0 mm 0.00 in0.0 mm
07:10 PM 42.0°F5.6°C 33.3°F0.7°C 71% Calm Calm -- 26.54 in898.7 mb - 0.00 in0.0 mm 0.00 in0.0 mm
07:15 PM 42.0°F5.6°C 33.3°F0.7°C 71% Calm Calm -- 26.54 in898.7 mb - 0.00 in0.0 mm 0.00 in0.0 mm
07:20 PM 42.0°F5.6°C 32.6°F0.3°C 69% Calm Calm -- 26.54 in898.7 mb - 0.00 in0.0 mm 0.00 in0.0 mm
07:25 PM 42.0°F5.6°C 33.3°F0.7°C 71% 1.2 mph NNW1.9 kmh NNW 1.2 mph1.9 kmh 26.54 in898.7 mb - 0.00 in0.0 mm 0.00 in0.0 mm
07:30 PM 42.0°F5.6°C 33.6°F0.9°C 72% Calm Calm -- 26.53 in898.4 mb - 0.00 in0.0 mm 0.00 in0.0 mm
07:35 PM 41.0°F5.0°C 33.3°F0.7°C 74% Calm Calm 1.2 mph1.9 kmh 26.54 in898.7 mb - 0.00 in0.0 mm 0.00 in0.0 mm
07:40 PM 41.0°F5.0°C 33.7°F0.9°C 75% 1.2 mph WNW1.9 kmh WNW 2.3 mph3.7 kmh 26.53 in898.4 mb - 0.00 in0.0 mm 0.00 in0.0 mm
07:45 PM 41.0°F5.0°C 33.7°F0.9°C 75% Calm Calm -- 26.54 in898.7 mb - 0.00 in0.0 mm 0.00 in0.0 mm
07:50 PM 41.0°F5.0°C 33.7°F0.9°C 75% Calm Calm -- 26.54 in898.7 mb - 0.00 in0.0 mm 0.00 in0.0 mm
07:55 PM 41.0°F5.0°C 33.3°F0.7°C 74% 1.2 mph NW1.9 kmh NW 3.5 mph5.6 kmh 26.54 in898.7 mb - 0.00 in0.0 mm 0.00 in0.0 mm
08:00 PM 41.0°F5.0°C 33.0°F0.6°C 73% 2.3 mph WNW3.7 kmh WNW 3.5 mph5.6 kmh 26.54 in898.7 mb - 0.00 in0.0 mm 0.00 in0.0 mm
08:10 PM 41.0°F5.0°C 33.0°F0.6°C 73% Calm Calm -- 26.54 in898.7 mb - 0.00 in0.0 mm 0.00 in0.0 mm
08:15 PM 41.0°F5.0°C 33.0°F0.6°C 73% Calm Calm -- 26.53 in898.4 mb - 0.00 in0.0 mm 0.00 in0.0 mm
08:20 PM 41.0°F5.0°C 33.0°F0.6°C 73% Calm Calm 1.2 mph1.9 kmh 26.52 in898.1 mb - 0.00 in0.0 mm 0.00 in0.0 mm
08:25 PM 41.0°F5.0°C 33.0°F0.6°C 73% Calm Calm -- 26.52 in898.1 mb - 0.00 in0.0 mm 0.00 in0.0 mm
08:30 PM 41.0°F5.0°C 33.3°F0.7°C 74% Calm Calm -- 26.52 in898.1 mb - 0.00 in0.0 mm 0.00 in0.0 mm
08:35 PM 41.0°F5.0°C 33.0°F0.6°C 73% Calm Calm -- 26.51 in897.7 mb - 0.00 in0.0 mm 0.00 in0.0 mm
08:40 PM 41.0°F5.0°C 33.7°F0.9°C 75% Calm Calm -- 26.51 in897.7 mb - 0.00 in0.0 mm 0.00 in0.0 mm
08:45 PM 41.0°F5.0°C 33.7°F0.9°C 75% Calm Calm -- 26.51 in897.7 mb - 0.00 in0.0 mm 0.00 in0.0 mm
08:50 PM 41.0°F5.0°C 33.3°F0.7°C 74% Calm Calm -- 26.51 in897.7 mb - 0.00 in0.0 mm 0.00 in0.0 mm
08:55 PM 41.0°F5.0°C 33.0°F0.6°C 73% 1.2 mph NNW1.9 kmh NNW 2.3 mph3.7 kmh 26.51 in897.7 mb - 0.00 in0.0 mm 0.00 in0.0 mm
09:00 PM 41.0°F5.0°C 33.0°F0.6°C 73% Calm Calm -- 26.51 in897.7 mb - 0.00 in0.0 mm 0.00 in0.0 mm
09:10 PM 41.0°F5.0°C 32.7°F0.4°C 72% 1.2 mph N1.9 kmh N 2.3 mph3.7 kmh 26.51 in897.7 mb - 0.00 in0.0 mm 0.00 in0.0 mm
09:15 PM 41.0°F5.0°C 33.0°F0.6°C 73% Calm Calm 1.2 mph1.9 kmh 26.51 in897.7 mb - 0.00 in0.0 mm 0.00 in0.0 mm
09:20 PM 41.0°F5.0°C 33.7°F0.9°C 75% Calm Calm -- 26.51 in897.7 mb - 0.00 in0.0 mm 0.00 in0.0 mm
09:25 PM 41.0°F5.0°C 33.7°F0.9°C 75% Calm Calm -- 26.52 in898.1 mb - 0.00 in0.0 mm 0.00 in0.0 mm
09:30 PM 41.0°F5.0°C 34.0°F1.1°C 76% Calm Calm -- 26.52 in898.1 mb - 0.00 in0.0 mm 0.00 in0.0 mm
09:35 PM 41.0°F5.0°C 34.7°F1.5°C 78% Calm Calm -- 26.52 in898.1 mb - 0.00 in0.0 mm 0.00 in0.0 mm
09:40 PM 41.0°F5.0°C 35.0°F1.7°C 79% Calm Calm -- 26.52 in898.1 mb - 0.00 in0.0 mm 0.00 in0.0 mm
09:45 PM 41.0°F5.0°C 35.0°F1.7°C 79% Calm Calm -- 26.52 in898.1 mb - 0.00 in0.0 mm 0.00 in0.0 mm
09:50 PM 40.0°F4.4°C 33.7°F0.9°C 78% Calm Calm -- 26.52 in898.1 mb - 0.00 in0.0 mm 0.00 in0.0 mm
09:55 PM 40.0°F4.4°C 33.7°F0.9°C 78% Calm Calm -- 26.51 in897.7 mb - 0.00 in0.0 mm 0.00 in0.0 mm
10:00 PM 41.0°F5.0°C 34.3°F1.3°C 77% Calm Calm -- 26.51 in897.7 mb - 0.00 in0.0 mm 0.00 in0.0 mm
10:10 PM 40.0°F4.4°C 34.0°F1.1°C 79% Calm Calm -- 26.52 in898.1 mb - 0.00 in0.0 mm 0.00 in0.0 mm
10:15 PM 40.0°F4.4°C 33.4°F0.8°C 77% Calm Calm -- 26.52 in898.1 mb - 0.00 in0.0 mm 0.00 in0.0 mm
10:20 PM 40.0°F4.4°C 33.7°F0.9°C 78% Calm Calm -- 26.52 in898.1 mb - 0.00 in0.0 mm 0.00 in0.0 mm
10:25 PM 40.0°F4.4°C 33.4°F0.8°C 77% Calm Calm -- 26.52 in898.1 mb - 0.00 in0.0 mm 0.00 in0.0 mm
10:30 PM 40.0°F4.4°C 33.4°F0.8°C 77% Calm Calm -- 26.51 in897.7 mb - 0.00 in0.0 mm 0.00 in0.0 mm
10:35 PM 40.0°F4.4°C 34.0°F1.1°C 79% Calm Calm -- 26.51 in897.7 mb - 0.00 in0.0 mm 0.00 in0.0 mm
10:40 PM 40.0°F4.4°C 33.4°F0.8°C 77% 1.2 mph N1.9 kmh N 2.3 mph3.7 kmh 26.52 in898.1 mb - 0.00 in0.0 mm 0.00 in0.0 mm
10:45 PM 41.0°F5.0°C 34.3°F1.3°C 77% Calm Calm -- 26.52 in898.1 mb - 0.00 in0.0 mm 0.00 in0.0 mm
10:50 PM 41.0°F5.0°C 34.3°F1.3°C 77% Calm Calm -- 26.52 in898.1 mb - 0.00 in0.0 mm 0.00 in0.0 mm
10:55 PM 40.0°F4.4°C 33.7°F0.9°C 78% Calm Calm -- 26.52 in898.1 mb - 0.00 in0.0 mm 0.00 in0.0 mm
11:00 PM 40.0°F4.4°C 33.7°F0.9°C 78% Calm Calm -- 26.52 in898.1 mb - 0.00 in0.0 mm 0.00 in0.0 mm
11:10 PM 40.0°F4.4°C 34.3°F1.3°C 80% Calm Calm -- 26.52 in898.1 mb - 0.00 in0.0 mm 0.00 in0.0 mm
11:15 PM 40.0°F4.4°C 34.3°F1.3°C 80% Calm Calm -- 26.53 in898.4 mb - 0.00 in0.0 mm 0.00 in0.0 mm
11:20 PM 40.0°F4.4°C 34.3°F1.3°C 80% Calm Calm -- 26.53 in898.4 mb - 0.00 in0.0 mm 0.00 in0.0 mm
11:25 PM 40.0°F4.4°C 33.7°F0.9°C 78% Calm Calm -- 26.52 in898.1 mb - 0.00 in0.0 mm 0.00 in0.0 mm
11:30 PM 40.0°F4.4°C 34.6°F1.4°C 81% Calm Calm -- 26.52 in898.1 mb - 0.00 in0.0 mm 0.00 in0.0 mm
11:35 PM 40.0°F4.4°C 34.9°F1.6°C 82% Calm Calm -- 26.52 in898.1 mb - 0.00 in0.0 mm 0.00 in0.0 mm
11:40 PM 40.0°F4.4°C 34.3°F1.3°C 80% Calm Calm -- 26.52 in898.1 mb - 0.00 in0.0 mm 0.00 in0.0 mm
11:45 PM 40.0°F4.4°C 34.6°F1.4°C 81% Calm Calm -- 26.52 in898.1 mb - 0.00 in0.0 mm 0.00 in0.0 mm
11:50 PM 40.0°F4.4°C 34.0°F1.1°C 79% 1.2 mph N1.9 kmh N 1.2 mph1.9 kmh 26.51 in897.7 mb - 0.00 in0.0 mm 0.00 in0.0 mm
11:55 PM 40.0°F4.4°C 34.0°F1.1°C 79% 1.2 mph N1.9 kmh N 2.3 mph3.7 kmh 26.50 in897.4 mb - 0.00 in0.0 mm 0.00 in0.0 mm